Airfield :
LOGIN :

Register | Disclaimer

   EN    FR    IT 

 










Legend :    VFR   Marginal VFR   IFR   Intensive IFR   Very Intensive IFR
Visi :
Ceiling :
>= 8 km
>= 3000ft
5 to 8 km
1000 to 3000 ft
1500m to 5 km
500 to 1000 ft
800 to 1500m
200 to 500 ft
< 800m
< 200 ft
Symbols :   Thunderstorms  Fog  Heavy snow  Heavy precipitations  Wind > 20 kt
SIGMETs :     Misc.  Thunderstorms  Icing  Turbulence  Mountain Waves  Volcanic Ashes







- Airport Elevation : 53 ft
- IATA code : AGP


LEMG - Malaga

CURRENT METAR :
  • 152230Z 01004KT 290V070 9999 -RA FEW010 SCT020 BKN060 18/16 Q1011 NOSIG

EXPIRED METARs :
  • 152200Z 26004KT 9999 FEW020 SCT028 BKN040 18/16 Q1011 NOSIG
  • 152130Z 06002KT 9999 -RA FEW020 SCT027 BKN035 19/14 Q1011 NOSIG
  • 152100Z 15006KT 090V180 9999 FEW020 BKN029 18/15 Q1011 NOSIG
  • 152030Z 15006KT 110V190 9999 FEW020 BKN030 18/15 Q1011 NOSIG
  • 152000Z 16008KT 130V200 9999 FEW020 BKN034 19/14 Q1011 NOSIG

TAF TAF LEMG
Valid from the 15 at 18:00 until the 16 at 18:00 UTC


151700Z 1518/1618 VRB04KT 9999 FEW035 TX25/1614Z TN16/1606Z
TEMPO 1518/1523 4000 RA BKN014
BECMG 1600/1603 29006KT
No reported NOTAMs for that airfield.



MET'MAP, your aeronautical weather chart ! - Copyright ORBIFLY December 2007 - Disclaimer

ORBIFLY MET'MAP TEAM :

Programming & Development : Alexandra Zaïnal
Concept & Development : Baudouin d'Aumeries
Co-Development & Prog : Marc-Olivier Méhu
Technical & hardware support : Manuel Goepfert

Contact : metmap@orbifly.com




SOURCES & CREDITS :

   NOAA